KHLX

Details ICAO KHLX
Name TWIN COUNTY
Region United States
Timezone America/New_York (UTC-5.0)
Plans Departing 8
Arriving 7
Stats Elevation 2,693 ft / 821 m (AMSL)
Location 36.766114° -80.823567°
Runways 1
Magnetic Variation 8.034° W
Sunrise 2017-12-12 12:28:10 UTC / 2017-12-12 07:28:10 Local
Sunset 2017-12-12 22:08:57 UTC / 2017-12-12 17:08:57 Local
Advertisement - Login to hide

Runways

ID Width Length Bearing (true) Bearing (mag) Surface Threshold Offset Overrun Length
01 75 ft / 23 m 4,213 ft / 1,284 m 9.96° 17.99° Asphalt 0 ft / 0 m 0 ft / 0 m
19 75 ft / 23 m 4,213 ft / 1,284 m 189.96° 197.99° Asphalt 0 ft / 0 m 0 ft / 0 m

Map

Weather


0- 5 10 15 20 25 30 35+ Temperature / ° C

Clouds and Precipitation
Forecast for 2017-12-12 18:00 UTC. Updated an hour ago

Ground ~20,000 ft ~40,000 ft Winds

METAR

KHLX 121755Z AUTO 30009G20KT 10SM SCT025 SCT034 BKN055 02/M03 A2961 RMK AO2 T00211032 10032 20020

TAF

Not found

Frequencies

Recorded 118.37 MHz AWOS 3
Approach 126.00 MHz ROANOKE APP/DEP
Unicom 122.80 MHz CTAF/UNICOM
Warning: Do not use this data for real-world aviation or navigation. No guarantee of current accuracy is given.